Avioradar koristi kolačiće da bi Vam omogućio jednostavnije i ugodnije korištenje stranice. 

AVIORADAR - Hrvatski zrakoplovni portal

POREMEĆAJ - 21.1.2018. Dubrovnik - kiša i vjetar uzrokuju probleme

Piše: Nenad Sredojević.

DBV

Na ZL Dubrovnik je danas zračni promet poremećen zbog vremenskh uvjeta. 

- Let Croatia Airlinesa OU668 / CTN8Y iz Zagreba (ZAG/LDZA) koji je trebao sletjeti u 12:45, otišao je u go around  te je preusmjeren na Split (SPU/LDSP). U Dubrovnik se vratio u 15:22 kada su se raščistili oblaci koji su ga spriječli pri prvom slijetanju. Zbog toga je kasnio i povratni let za Zagreb (OU669 / CTN6X) koji je, umjesto u 13:20, odletio u 15:52.

- Večernji odlazni let za Zagreb (OU663 / CTN6D), u trenutcima dok ovo pišemo, stoji na parkirnoj poziciji i čeka smirivanje vjetra čiji udari, prema podatcima kojima raspolažemo, dosežu 60 čvorova / 111 km/h.  Prognoza za ostatak večeri nije povoljna. - INFO: let je otkazan.

- Let OU419 / CTN27H iz Frankfurta (FRA/EDDF)  je odmah preusmjeren na ZL Split. Povratni let za Zagreb (OU665 / CTN6J) je također otkazan.

- Dolazak iz Zagreba (OU/CTN664) 22:05 je također odmah otišao za Split.  

METAR LDDU 212000Z 02034G56KT 330V070 CAVOK 08/M05 Q1005 TEMPO VRB27G45KT =

 

 

Foto: © Avioradar